sensor_id;sensor_type;location;lat;lon;timestamp;temperature;humidity
921;DHT22;447;51.332;6.778;2022-09-03T00:00:41;24.90;48.80
921;DHT22;447;51.332;6.778;2022-09-03T00:03:28;24.90;48.80
921;DHT22;447;51.332;6.778;2022-09-03T00:13:49;24.90;48.90
921;DHT22;447;51.332;6.778;2022-09-03T00:16:19;24.90;48.90
921;DHT22;447;51.332;6.778;2022-09-03T00:18:59;24.80;48.90
921;DHT22;447;51.332;6.778;2022-09-03T00:21:47;24.80;48.90
921;DHT22;447;51.332;6.778;2022-09-03T00:24:20;24.80;49.00
921;DHT22;447;51.332;6.778;2022-09-03T00:27:00;24.80;49.00
921;DHT22;447;51.332;6.778;2022-09-03T00:29:40;24.80;49.00
921;DHT22;447;51.332;6.778;2022-09-03T00:32:23;24.80;48.90
921;DHT22;447;51.332;6.778;2022-09-03T00:35:00;24.70;48.90
921;DHT22;447;51.332;6.778;2022-09-03T00:37:33;24.70;49.00
921;DHT22;447;51.332;6.778;2022-09-03T00:39:59;24.70;49.00
921;DHT22;447;51.332;6.778;2022-09-03T00:45:33;24.70;49.00
921;DHT22;447;51.332;6.778;2022-09-03T00:55:53;24.60;49.00
921;DHT22;447;51.332;6.778;2022-09-03T01:11:37;24.60;49.10
921;DHT22;447;51.332;6.778;2022-09-03T01:17:05;24.50;49.00
921;DHT22;447;51.332;6.778;2022-09-03T01:30:43;24.50;49.10
921;DHT22;447;51.332;6.778;2022-09-03T01:42:15;24.40;49.10
921;DHT22;447;51.332;6.778;2022-09-03T01:59:29;24.30;49.20
921;DHT22;447;51.332;6.778;2022-09-03T02:02:17;24.30;49.20
921;DHT22;447;51.332;6.778;2022-09-03T02:07:30;24.20;49.10
921;DHT22;447;51.332;6.778;2022-09-03T02:10:04;24.30;49.20
921;DHT22;447;51.332;6.778;2022-09-03T02:12:32;24.20;49.10
921;DHT22;447;51.332;6.778;2022-09-03T02:15:06;24.20;49.10
921;DHT22;447;51.332;6.778;2022-09-03T02:17:35;24.20;49.10
921;DHT22;447;51.332;6.778;2022-09-03T02:20:06;24.20;49.20
921;DHT22;447;51.332;6.778;2022-09-03T02:22:33;24.20;49.10
921;DHT22;447;51.332;6.778;2022-09-03T02:25:02;24.20;49.10
921;DHT22;447;51.332;6.778;2022-09-03T02:27:28;24.20;49.10
921;DHT22;447;51.332;6.778;2022-09-03T02:29:56;24.20;49.10
921;DHT22;447;51.332;6.778;2022-09-03T02:32:22;24.10;49.10
921;DHT22;447;51.332;6.778;2022-09-03T02:34:51;24.20;49.20
921;DHT22;447;51.332;6.778;2022-09-03T02:37:24;24.10;49.20
921;DHT22;447;51.332;6.778;2022-09-03T02:39:53;24.10;49.20
921;DHT22;447;51.332;6.778;2022-09-03T02:42:20;24.10;49.20
921;DHT22;447;51.332;6.778;2022-09-03T02:44:58;24.10;49.20
921;DHT22;447;51.332;6.778;2022-09-03T02:47:30;24.10;49.20
921;DHT22;447;51.332;6.778;2022-09-03T02:50:01;24.10;49.30
921;DHT22;447;51.332;6.778;2022-09-03T02:52:27;24.10;49.30
921;DHT22;447;51.332;6.778;2022-09-03T02:54:55;24.10;49.40
921;DHT22;447;51.332;6.778;2022-09-03T02:57:21;24.10;49.40
921;DHT22;447;51.332;6.778;2022-09-03T02:59:47;24.10;49.40
921;DHT22;447;51.332;6.778;2022-09-03T03:02:13;24.10;49.40
921;DHT22;447;51.332;6.778;2022-09-03T03:04:41;24.00;49.40
921;DHT22;447;51.332;6.778;2022-09-03T03:07:10;24.00;49.40
921;DHT22;447;51.332;6.778;2022-09-03T03:09:35;24.00;49.40
921;DHT22;447;51.332;6.778;2022-09-03T03:12:02;24.00;49.40
921;DHT22;447;51.332;6.778;2022-09-03T03:14:33;24.00;49.40
921;DHT22;447;51.332;6.778;2022-09-03T03:16:58;24.00;49.50
921;DHT22;447;51.332;6.778;2022-09-03T03:19:27;24.00;49.50
921;DHT22;447;51.332;6.778;2022-09-03T03:21:58;23.90;49.40
921;DHT22;447;51.332;6.778;2022-09-03T03:24:26;23.90;49.50
921;DHT22;447;51.332;6.778;2022-09-03T03:26:55;23.90;49.50
921;DHT22;447;51.332;6.778;2022-09-03T03:29:23;23.90;49.50
921;DHT22;447;51.332;6.778;2022-09-03T03:31:54;23.90;49.60
921;DHT22;447;51.332;6.778;2022-09-03T03:34:25;23.90;49.70
921;DHT22;447;51.332;6.778;2022-09-03T03:36:51;23.80;49.70
921;DHT22;447;51.332;6.778;2022-09-03T03:39:19;23.90;49.70
921;DHT22;447;51.332;6.778;2022-09-03T03:41:50;23.80;49.70
921;DHT22;447;51.332;6.778;2022-09-03T03:44:17;23.80;50.20
921;DHT22;447;51.332;6.778;2022-09-03T03:46:45;23.80;49.70
921;DHT22;447;51.332;6.778;2022-09-03T03:49:11;23.80;49.70
921;DHT22;447;51.332;6.778;2022-09-03T03:51:39;23.80;50.30
921;DHT22;447;51.332;6.778;2022-09-03T03:54:08;23.80;49.70
921;DHT22;447;51.332;6.778;2022-09-03T03:56:34;23.70;49.70
921;DHT22;447;51.332;6.778;2022-09-03T03:59:01;23.70;49.70
921;DHT22;447;51.332;6.778;2022-09-03T04:01:27;23.70;49.70
921;DHT22;447;51.332;6.778;2022-09-03T04:03:55;23.70;49.80
921;DHT22;447;51.332;6.778;2022-09-03T04:06:22;23.70;49.80
921;DHT22;447;51.332;6.778;2022-09-03T04:08:49;23.70;49.80
921;DHT22;447;51.332;6.778;2022-09-03T04:11:19;23.70;49.90
921;DHT22;447;51.332;6.778;2022-09-03T04:13:49;23.60;49.80
921;DHT22;447;51.332;6.778;2022-09-03T04:16:23;23.60;49.90
921;DHT22;447;51.332;6.778;2022-09-03T04:18:54;23.60;49.90
921;DHT22;447;51.332;6.778;2022-09-03T04:21:28;23.60;49.90
921;DHT22;447;51.332;6.778;2022-09-03T04:23:54;23.60;49.90
921;DHT22;447;51.332;6.778;2022-09-03T04:26:27;23.60;50.00
921;DHT22;447;51.332;6.778;2022-09-03T04:28:57;23.60;50.00
921;DHT22;447;51.332;6.778;2022-09-03T04:31:26;23.50;50.00
921;DHT22;447;51.332;6.778;2022-09-03T04:33:52;23.50;50.10
921;DHT22;447;51.332;6.778;2022-09-03T04:36:24;23.50;50.10
921;DHT22;447;51.332;6.778;2022-09-03T04:38:57;23.50;50.10
921;DHT22;447;51.332;6.778;2022-09-03T04:41:27;23.40;50.00
921;DHT22;447;51.332;6.778;2022-09-03T04:43:58;23.40;50.00
921;DHT22;447;51.332;6.778;2022-09-03T04:46:29;23.40;50.00
921;DHT22;447;51.332;6.778;2022-09-03T04:48:58;23.40;50.10
921;DHT22;447;51.332;6.778;2022-09-03T04:51:28;23.40;50.10
921;DHT22;447;51.332;6.778;2022-09-03T04:53:59;23.40;50.10
921;DHT22;447;51.332;6.778;2022-09-03T04:56:30;23.40;50.10
921;DHT22;447;51.332;6.778;2022-09-03T04:58:59;23.30;50.10
921;DHT22;447;51.332;6.778;2022-09-03T05:01:27;23.30;50.20
921;DHT22;447;51.332;6.778;2022-09-03T05:03:56;23.30;50.20
921;DHT22;447;51.332;6.778;2022-09-03T05:06:23;23.30;50.20
921;DHT22;447;51.332;6.778;2022-09-03T05:08:55;23.30;50.20
921;DHT22;447;51.332;6.778;2022-09-03T05:11:22;23.30;50.80
921;DHT22;447;51.332;6.778;2022-09-03T05:13:50;23.30;50.30
921;DHT22;447;51.332;6.778;2022-09-03T05:16:20;23.30;50.30
921;DHT22;447;51.332;6.778;2022-09-03T05:18:51;23.20;50.20
921;DHT22;447;51.332;6.778;2022-09-03T05:21:23;23.20;50.30
921;DHT22;447;51.332;6.778;2022-09-03T05:23:52;23.20;50.40
921;DHT22;447;51.332;6.778;2022-09-03T05:26:26;23.20;50.40
921;DHT22;447;51.332;6.778;2022-09-03T05:28:57;23.20;50.40
921;DHT22;447;51.332;6.778;2022-09-03T05:31:28;23.20;51.00
921;DHT22;447;51.332;6.778;2022-09-03T05:34:00;23.20;50.50
921;DHT22;447;51.332;6.778;2022-09-03T05:36:28;23.20;50.50
921;DHT22;447;51.332;6.778;2022-09-03T05:38:56;23.10;50.40
921;DHT22;447;51.332;6.778;2022-09-03T05:41:23;23.10;50.50
921;DHT22;447;51.332;6.778;2022-09-03T05:43:51;23.10;50.50
921;DHT22;447;51.332;6.778;2022-09-03T05:46:25;23.10;50.60
921;DHT22;447;51.332;6.778;2022-09-03T05:48:59;23.10;50.60
921;DHT22;447;51.332;6.778;2022-09-03T05:51:34;23.10;50.70
921;DHT22;447;51.332;6.778;2022-09-03T05:54:03;23.10;50.80
921;DHT22;447;51.332;6.778;2022-09-03T05:56:31;23.10;50.80
921;DHT22;447;51.332;6.778;2022-09-03T05:59:02;23.10;50.90
921;DHT22;447;51.332;6.778;2022-09-03T06:01:32;23.00;50.90
921;DHT22;447;51.332;6.778;2022-09-03T06:04:02;23.00;51.00
921;DHT22;447;51.332;6.778;2022-09-03T06:06:31;23.00;51.00
921;DHT22;447;51.332;6.778;2022-09-03T06:09:20;23.00;51.10
921;DHT22;447;51.332;6.778;2022-09-03T06:11:48;23.00;51.20
921;DHT22;447;51.332;6.778;2022-09-03T06:14:15;23.00;51.20
921;DHT22;447;51.332;6.778;2022-09-03T06:16:49;23.00;51.30
921;DHT22;447;51.332;6.778;2022-09-03T06:19:19;23.00;51.40
921;DHT22;447;51.332;6.778;2022-09-03T06:21:48;22.90;51.90
921;DHT22;447;51.332;6.778;2022-09-03T06:24:20;22.90;51.40
921;DHT22;447;51.332;6.778;2022-09-03T06:26:51;22.90;51.50
921;DHT22;447;51.332;6.778;2022-09-03T06:29:20;22.90;51.60
921;DHT22;447;51.332;6.778;2022-09-03T06:31:49;22.90;51.70
921;DHT22;447;51.332;6.778;2022-09-03T06:34:18;22.90;51.70
921;DHT22;447;51.332;6.778;2022-09-03T06:36:44;22.90;51.80
921;DHT22;447;51.332;6.778;2022-09-03T06:39:10;22.90;51.80
921;DHT22;447;51.332;6.778;2022-09-03T06:41:39;22.90;51.80
921;DHT22;447;51.332;6.778;2022-09-03T06:44:07;22.90;51.90
921;DHT22;447;51.332;6.778;2022-09-03T06:46:38;22.90;51.90
921;DHT22;447;51.332;6.778;2022-09-03T06:49:07;22.90;51.90
921;DHT22;447;51.332;6.778;2022-09-03T06:51:34;22.90;52.00
921;DHT22;447;51.332;6.778;2022-09-03T06:54:05;22.90;51.90
921;DHT22;447;51.332;6.778;2022-09-03T06:56:35;22.90;51.90
921;DHT22;447;51.332;6.778;2022-09-03T06:59:12;22.80;51.80
921;DHT22;447;51.332;6.778;2022-09-03T07:01:39;22.90;51.90
921;DHT22;447;51.332;6.778;2022-09-03T07:04:07;22.80;51.80
921;DHT22;447;51.332;6.778;2022-09-03T07:06:38;22.80;51.80
921;DHT22;447;51.332;6.778;2022-09-03T07:09:08;22.80;51.80
921;DHT22;447;51.332;6.778;2022-09-03T07:11:39;22.80;51.80
921;DHT22;447;51.332;6.778;2022-09-03T07:14:11;22.80;51.80
921;DHT22;447;51.332;6.778;2022-09-03T07:16:41;22.80;51.80
921;DHT22;447;51.332;6.778;2022-09-03T07:19:13;22.80;51.80
921;DHT22;447;51.332;6.778;2022-09-03T07:21:40;22.80;51.80
921;DHT22;447;51.332;6.778;2022-09-03T07:24:09;22.80;52.00
921;DHT22;447;51.332;6.778;2022-09-03T07:26:39;22.80;51.90
921;DHT22;447;51.332;6.778;2022-09-03T07:29:08;22.80;52.00
921;DHT22;447;51.332;6.778;2022-09-03T07:31:42;22.80;51.90
921;DHT22;447;51.332;6.778;2022-09-03T07:34:10;22.80;51.90
921;DHT22;447;51.332;6.778;2022-09-03T07:36:38;22.80;51.90
921;DHT22;447;51.332;6.778;2022-09-03T07:39:06;22.80;51.90
921;DHT22;447;51.332;6.778;2022-09-03T07:41:35;22.80;51.90
921;DHT22;447;51.332;6.778;2022-09-03T07:44:01;22.80;51.90
921;DHT22;447;51.332;6.778;2022-09-03T07:46:35;22.80;51.90
921;DHT22;447;51.332;6.778;2022-09-03T07:49:05;22.80;51.90
921;DHT22;447;51.332;6.778;2022-09-03T07:51:36;22.80;51.90
921;DHT22;447;51.332;6.778;2022-09-03T07:54:10;22.80;51.90
921;DHT22;447;51.332;6.778;2022-09-03T07:56:37;22.80;51.90
921;DHT22;447;51.332;6.778;2022-09-03T07:59:04;22.80;51.90
921;DHT22;447;51.332;6.778;2022-09-03T08:01:31;22.80;51.90
921;DHT22;447;51.332;6.778;2022-09-03T08:04:00;22.80;51.90
921;DHT22;447;51.332;6.778;2022-09-03T08:06:28;22.80;51.90
921;DHT22;447;51.332;6.778;2022-09-03T08:09:03;22.90;52.00
921;DHT22;447;51.332;6.778;2022-09-03T08:11:35;22.90;52.00
921;DHT22;447;51.332;6.778;2022-09-03T08:14:06;22.90;52.00
921;DHT22;447;51.332;6.778;2022-09-03T08:16:38;22.90;52.00
921;DHT22;447;51.332;6.778;2022-09-03T08:19:08;22.90;52.00
921;DHT22;447;51.332;6.778;2022-09-03T08:21:34;22.90;51.90
921;DHT22;447;51.332;6.778;2022-09-03T08:24:01;22.90;52.00
921;DHT22;447;51.332;6.778;2022-09-03T08:26:32;22.90;52.00
921;DHT22;447;51.332;6.778;2022-09-03T08:28:58;22.90;52.00
921;DHT22;447;51.332;6.778;2022-09-03T08:31:25;22.90;52.00
921;DHT22;447;51.332;6.778;2022-09-03T08:33:56;22.90;52.00
921;DHT22;447;51.332;6.778;2022-09-03T08:36:28;22.90;52.00
921;DHT22;447;51.332;6.778;2022-09-03T08:39:00;22.90;52.00
921;DHT22;447;51.332;6.778;2022-09-03T08:44:45;23.00;52.00
921;DHT22;447;51.332;6.778;2022-09-03T08:47:31;23.00;52.00
921;DHT22;447;51.332;6.778;2022-09-03T08:55:25;23.00;52.00
921;DHT22;447;51.332;6.778;2022-09-03T08:58:06;23.10;52.00
921;DHT22;447;51.332;6.778;2022-09-03T09:15:05;23.20;52.10
921;DHT22;447;51.332;6.778;2022-09-03T09:22:51;23.30;52.10
921;DHT22;447;51.332;6.778;2022-09-03T09:25:22;23.30;52.10
921;DHT22;447;51.332;6.778;2022-09-03T09:28:02;23.30;52.10
921;DHT22;447;51.332;6.778;2022-09-03T09:30:30;23.40;52.10
921;DHT22;447;51.332;6.778;2022-09-03T09:32:59;23.40;52.10
921;DHT22;447;51.332;6.778;2022-09-03T09:35:27;23.40;52.10
921;DHT22;447;51.332;6.778;2022-09-03T09:37:57;23.40;52.00
921;DHT22;447;51.332;6.778;2022-09-03T09:40:38;23.40;52.00
921;DHT22;447;51.332;6.778;2022-09-03T09:43:17;23.50;52.10
921;DHT22;447;51.332;6.778;2022-09-03T09:45:52;23.50;52.20
921;DHT22;447;51.332;6.778;2022-09-03T09:48:25;23.50;52.20
921;DHT22;447;51.332;6.778;2022-09-03T09:51:12;23.50;52.10
921;DHT22;447;51.332;6.778;2022-09-03T09:53:39;23.60;52.20
921;DHT22;447;51.332;6.778;2022-09-03T09:56:05;23.60;52.20
921;DHT22;447;51.332;6.778;2022-09-03T09:58:33;23.60;52.20
921;DHT22;447;51.332;6.778;2022-09-03T10:01:03;23.70;52.30
921;DHT22;447;51.332;6.778;2022-09-03T10:03:35;23.70;52.30
921;DHT22;447;51.332;6.778;2022-09-03T10:06:08;23.70;52.30
921;DHT22;447;51.332;6.778;2022-09-03T10:12:25;23.80;52.40
921;DHT22;447;51.332;6.778;2022-09-03T10:23:31;23.90;52.70
921;DHT22;447;51.332;6.778;2022-09-03T10:26:09;23.90;52.70
921;DHT22;447;51.332;6.778;2022-09-03T10:28:40;24.00;52.70
921;DHT22;447;51.332;6.778;2022-09-03T10:31:27;24.00;52.70
921;DHT22;447;51.332;6.778;2022-09-03T10:34:31;24.00;52.80
921;DHT22;447;51.332;6.778;2022-09-03T10:37:24;24.10;52.80
921;DHT22;447;51.332;6.778;2022-09-03T10:53:36;24.30;53.00
921;DHT22;447;51.332;6.778;2022-09-03T10:56:14;24.40;53.10
921;DHT22;447;51.332;6.778;2022-09-03T11:06:58;24.40;53.10
921;DHT22;447;51.332;6.778;2022-09-03T11:09:45;24.50;53.20
921;DHT22;447;51.332;6.778;2022-09-03T11:12:31;24.50;53.30
921;DHT22;447;51.332;6.778;2022-09-03T11:15:08;24.50;53.30
921;DHT22;447;51.332;6.778;2022-09-03T11:17:48;24.50;53.30
921;DHT22;447;51.332;6.778;2022-09-03T11:20:51;24.50;53.30
921;DHT22;447;51.332;6.778;2022-09-03T11:23:21;24.60;53.30
921;DHT22;447;51.332;6.778;2022-09-03T11:25:53;24.60;53.50
921;DHT22;447;51.332;6.778;2022-09-03T11:33:29;24.70;53.60
921;DHT22;447;51.332;6.778;2022-09-03T11:36:01;24.70;53.50
921;DHT22;447;51.332;6.778;2022-09-03T11:38:33;24.70;53.50
921;DHT22;447;51.332;6.778;2022-09-03T11:41:13;24.80;53.60
921;DHT22;447;51.332;6.778;2022-09-03T11:43:41;24.80;53.60
921;DHT22;447;51.332;6.778;2022-09-03T11:48:54;24.90;53.70
921;DHT22;447;51.332;6.778;2022-09-03T11:51:33;24.90;53.70
921;DHT22;447;51.332;6.778;2022-09-03T11:56:41;24.90;53.50
921;DHT22;447;51.332;6.778;2022-09-03T12:18:05;25.10;53.70
921;DHT22;447;51.332;6.778;2022-09-03T12:21:04;25.10;53.60
921;DHT22;447;51.332;6.778;2022-09-03T12:23:38;25.20;53.60
921;DHT22;447;51.332;6.778;2022-09-03T12:26:13;25.20;53.60
921;DHT22;447;51.332;6.778;2022-09-03T12:28:45;25.20;53.50
921;DHT22;447;51.332;6.778;2022-09-03T12:31:18;25.20;53.50
921;DHT22;447;51.332;6.778;2022-09-03T12:34:02;25.20;53.40
921;DHT22;447;51.332;6.778;2022-09-03T12:36:43;25.30;53.40
921;DHT22;447;51.332;6.778;2022-09-03T12:42:08;25.30;53.30
921;DHT22;447;51.332;6.778;2022-09-03T12:47:16;25.30;53.40
921;DHT22;447;51.332;6.778;2022-09-03T12:49:47;25.40;53.40
921;DHT22;447;51.332;6.778;2022-09-03T12:58:03;25.40;53.40
921;DHT22;447;51.332;6.778;2022-09-03T13:00:36;25.50;53.40
921;DHT22;447;51.332;6.778;2022-09-03T13:03:21;25.50;53.40
921;DHT22;447;51.332;6.778;2022-09-03T13:06:00;25.50;53.40
921;DHT22;447;51.332;6.778;2022-09-03T13:08:36;25.50;53.50
921;DHT22;447;51.332;6.778;2022-09-03T13:11:06;25.60;53.40
921;DHT22;447;51.332;6.778;2022-09-03T13:13:36;25.60;53.40
921;DHT22;447;51.332;6.778;2022-09-03T13:24:39;25.70;53.60
921;DHT22;447;51.332;6.778;2022-09-03T13:30:12;25.70;53.60
921;DHT22;447;51.332;6.778;2022-09-03T13:35:38;25.70;53.60
921;DHT22;447;51.332;6.778;2022-09-03T13:38:26;25.80;53.60
921;DHT22;447;51.332;6.778;2022-09-03T13:48:47;25.90;53.70
921;DHT22;447;51.332;6.778;2022-09-03T13:51:44;25.90;54.30
921;DHT22;447;51.332;6.778;2022-09-03T13:54:18;26.00;53.70
921;DHT22;447;51.332;6.778;2022-09-03T13:56:55;26.00;53.80
921;DHT22;447;51.332;6.778;2022-09-03T14:02:04;26.00;53.70
921;DHT22;447;51.332;6.778;2022-09-03T14:13:27;26.20;53.80
921;DHT22;447;51.332;6.778;2022-09-03T14:21:28;26.30;53.70
921;DHT22;447;51.332;6.778;2022-09-03T14:27:03;26.30;53.70
921;DHT22;447;51.332;6.778;2022-09-03T14:29:33;26.40;53.70
921;DHT22;447;51.332;6.778;2022-09-03T14:40:46;26.50;53.70
921;DHT22;447;51.332;6.778;2022-09-03T15:12:58;26.80;53.60
921;DHT22;447;51.332;6.778;2022-09-03T15:18:26;26.90;53.50
921;DHT22;447;51.332;6.778;2022-09-03T15:21:12;26.90;53.50
921;DHT22;447;51.332;6.778;2022-09-03T15:23:47;27.00;53.50
921;DHT22;447;51.332;6.778;2022-09-03T15:35:06;27.10;53.40
921;DHT22;447;51.332;6.778;2022-09-03T15:37:47;27.10;53.30
921;DHT22;447;51.332;6.778;2022-09-03T15:42:49;27.10;53.20
921;DHT22;447;51.332;6.778;2022-09-03T15:45:35;27.20;53.30
921;DHT22;447;51.332;6.778;2022-09-03T15:48:35;27.20;53.30
921;DHT22;447;51.332;6.778;2022-09-03T15:56:18;27.10;53.20
921;DHT22;447;51.332;6.778;2022-09-03T16:04:02;27.20;53.10
921;DHT22;447;51.332;6.778;2022-09-03T16:15:23;27.20;53.10
921;DHT22;447;51.332;6.778;2022-09-03T16:17:57;27.20;53.20
921;DHT22;447;51.332;6.778;2022-09-03T16:23:09;27.20;53.20
921;DHT22;447;51.332;6.778;2022-09-03T16:25:46;27.20;53.30
921;DHT22;447;51.332;6.778;2022-09-03T16:41:43;27.10;53.30
921;DHT22;447;51.332;6.778;2022-09-03T16:49:56;27.00;53.40
921;DHT22;447;51.332;6.778;2022-09-03T16:52:50;27.00;53.40
921;DHT22;447;51.332;6.778;2022-09-03T17:06:58;27.00;53.60
921;DHT22;447;51.332;6.778;2022-09-03T17:12:59;27.00;53.70
921;DHT22;447;51.332;6.778;2022-09-03T17:15:33;27.00;53.80
921;DHT22;447;51.332;6.778;2022-09-03T17:23:39;27.00;53.90
921;DHT22;447;51.332;6.778;2022-09-03T17:26:14;27.00;53.90
921;DHT22;447;51.332;6.778;2022-09-03T17:31:53;26.90;53.90
921;DHT22;447;51.332;6.778;2022-09-03T17:43:17;27.00;54.30
921;DHT22;447;51.332;6.778;2022-09-03T17:48:51;26.90;54.30
921;DHT22;447;51.332;6.778;2022-09-03T17:51:25;26.90;54.40
921;DHT22;447;51.332;6.778;2022-09-03T17:59:47;26.90;54.60
921;DHT22;447;51.332;6.778;2022-09-03T18:02:32;26.90;55.20
921;DHT22;447;51.332;6.778;2022-09-03T18:07:42;26.90;54.80
921;DHT22;447;51.332;6.778;2022-09-03T18:10:29;26.90;55.00
921;DHT22;447;51.332;6.778;2022-09-03T18:13:28;26.80;54.90
921;DHT22;447;51.332;6.778;2022-09-03T18:18:46;26.80;55.00
921;DHT22;447;51.332;6.778;2022-09-03T18:21:25;26.80;55.00
921;DHT22;447;51.332;6.778;2022-09-03T18:24:30;26.80;55.00
921;DHT22;447;51.332;6.778;2022-09-03T18:27:38;26.80;55.10
921;DHT22;447;51.332;6.778;2022-09-03T18:30:26;26.80;55.20
921;DHT22;447;51.332;6.778;2022-09-03T18:33:22;26.80;55.30
921;DHT22;447;51.332;6.778;2022-09-03T18:36:10;26.70;55.40
921;DHT22;447;51.332;6.778;2022-09-03T18:39:14;26.70;55.50
921;DHT22;447;51.332;6.778;2022-09-03T18:45:34;26.70;55.60
921;DHT22;447;51.332;6.778;2022-09-03T18:49:10;26.70;55.90
921;DHT22;447;51.332;6.778;2022-09-03T18:58:23;26.70;56.30
921;DHT22;447;51.332;6.778;2022-09-03T19:01:32;26.70;56.50
921;DHT22;447;51.332;6.778;2022-09-03T19:04:48;26.70;56.50
921;DHT22;447;51.332;6.778;2022-09-03T19:07:58;26.60;56.50
921;DHT22;447;51.332;6.778;2022-09-03T19:10:55;26.60;56.60
921;DHT22;447;51.332;6.778;2022-09-03T19:13:44;26.60;56.60
921;DHT22;447;51.332;6.778;2022-09-03T19:22:44;26.60;57.00
921;DHT22;447;51.332;6.778;2022-09-03T19:25:29;26.60;57.20
921;DHT22;447;51.332;6.778;2022-09-03T19:28:25;26.50;57.30
921;DHT22;447;51.332;6.778;2022-09-03T19:37:05;26.50;57.40
921;DHT22;447;51.332;6.778;2022-09-03T19:54:59;26.40;57.70
921;DHT22;447;51.332;6.778;2022-09-03T19:57:51;26.40;57.60
921;DHT22;447;51.332;6.778;2022-09-03T20:00:43;26.40;57.70
921;DHT22;447;51.332;6.778;2022-09-03T20:03:28;26.40;57.80
921;DHT22;447;51.332;6.778;2022-09-03T20:06:16;26.40;57.80
921;DHT22;447;51.332;6.778;2022-09-03T20:09:07;26.30;57.80
921;DHT22;447;51.332;6.778;2022-09-03T20:11:57;26.40;58.00
921;DHT22;447;51.332;6.778;2022-09-03T20:14:34;26.30;58.00
921;DHT22;447;51.332;6.778;2022-09-03T20:19:55;26.30;58.00
921;DHT22;447;51.332;6.778;2022-09-03T20:22:44;26.30;57.90
921;DHT22;447;51.332;6.778;2022-09-03T20:28:43;26.30;58.10
921;DHT22;447;51.332;6.778;2022-09-03T20:34:00;26.30;58.10
921;DHT22;447;51.332;6.778;2022-09-03T20:56:28;26.10;58.30
921;DHT22;447;51.332;6.778;2022-09-03T20:59:19;26.10;58.40
921;DHT22;447;51.332;6.778;2022-09-03T21:10:51;26.10;58.60
921;DHT22;447;51.332;6.778;2022-09-03T21:13:58;26.10;58.80
921;DHT22;447;51.332;6.778;2022-09-03T21:19:07;26.00;58.60
921;DHT22;447;51.332;6.778;2022-09-03T21:24:57;26.00;58.70
921;DHT22;447;51.332;6.778;2022-09-03T21:27:32;26.00;58.80
921;DHT22;447;51.332;6.778;2022-09-03T21:35:22;26.00;58.80
921;DHT22;447;51.332;6.778;2022-09-03T21:40:35;25.90;58.80
921;DHT22;447;51.332;6.778;2022-09-03T21:51:22;25.90;58.80
921;DHT22;447;51.332;6.778;2022-09-03T22:02:11;25.90;58.90
921;DHT22;447;51.332;6.778;2022-09-03T22:04:44;25.80;58.90
921;DHT22;447;51.332;6.778;2022-09-03T22:10:10;25.80;59.00
921;DHT22;447;51.332;6.778;2022-09-03T22:15:48;25.80;59.10
921;DHT22;447;51.332;6.778;2022-09-03T22:21:02;25.70;59.10
921;DHT22;447;51.332;6.778;2022-09-03T22:27:15;25.70;59.10
921;DHT22;447;51.332;6.778;2022-09-03T22:38:23;25.70;59.30
921;DHT22;447;51.332;6.778;2022-09-03T22:46:19;25.60;59.30
921;DHT22;447;51.332;6.778;2022-09-03T22:51:19;25.60;59.40
921;DHT22;447;51.332;6.778;2022-09-03T22:56:32;25.60;59.40
921;DHT22;447;51.332;6.778;2022-09-03T23:02:12;25.60;59.50
921;DHT22;447;51.332;6.778;2022-09-03T23:04:40;25.60;59.60
921;DHT22;447;51.332;6.778;2022-09-03T23:10:08;25.50;59.60
921;DHT22;447;51.332;6.778;2022-09-03T23:12:45;25.50;59.60
921;DHT22;447;51.332;6.778;2022-09-03T23:15:16;25.50;59.70
921;DHT22;447;51.332;6.778;2022-09-03T23:18:03;25.50;59.70
921;DHT22;447;51.332;6.778;2022-09-03T23:20:37;25.50;59.70
921;DHT22;447;51.332;6.778;2022-09-03T23:23:28;25.40;59.70
921;DHT22;447;51.332;6.778;2022-09-03T23:26:08;25.40;59.70
921;DHT22;447;51.332;6.778;2022-09-03T23:28:46;25.40;59.70
921;DHT22;447;51.332;6.778;2022-09-03T23:33:46;25.40;59.90
921;DHT22;447;51.332;6.778;2022-09-03T23:36:41;25.40;59.90
921;DHT22;447;51.332;6.778;2022-09-03T23:42:29;25.40;59.80
921;DHT22;447;51.332;6.778;2022-09-03T23:47:45;25.30;59.90
